sensor_id;sensor_type;location;lat;lon;timestamp;P1;durP1;ratioP1;P2;durP2;ratioP2
25824;SDS011;13658;44.534;18.694;2024-03-02T00:02:24;69.97;;;34.70;;
25824;SDS011;13658;44.534;18.694;2024-03-02T00:04:50;65.40;;;32.95;;
25824;SDS011;13658;44.534;18.694;2024-03-02T00:07:16;77.03;;;35.22;;
25824;SDS011;13658;44.534;18.694;2024-03-02T00:09:43;71.03;;;35.22;;
25824;SDS011;13658;44.534;18.694;2024-03-02T00:12:11;76.55;;;38.17;;
25824;SDS011;13658;44.534;18.694;2024-03-02T00:14:40;76.93;;;35.05;;
25824;SDS011;13658;44.534;18.694;2024-03-02T00:17:08;65.22;;;32.50;;
25824;SDS011;13658;44.534;18.694;2024-03-02T00:19:46;73.60;;;33.17;;
25824;SDS011;13658;44.534;18.694;2024-03-02T00:22:12;67.22;;;34.42;;
25824;SDS011;13658;44.534;18.694;2024-03-02T00:24:38;68.22;;;33.30;;
25824;SDS011;13658;44.534;18.694;2024-03-02T00:27:05;67.22;;;34.42;;
25824;SDS011;13658;44.534;18.694;2024-03-02T00:29:32;73.15;;;35.35;;
25824;SDS011;13658;44.534;18.694;2024-03-02T00:32:00;67.68;;;34.63;;
25824;SDS011;13658;44.534;18.694;2024-03-02T00:34:27;68.13;;;34.13;;
25824;SDS011;13658;44.534;18.694;2024-03-02T00:36:52;65.70;;;33.40;;
25824;SDS011;13658;44.534;18.694;2024-03-02T00:39:18;67.72;;;33.78;;
25824;SDS011;13658;44.534;18.694;2024-03-02T00:41:44;61.10;;;31.77;;
25824;SDS011;13658;44.534;18.694;2024-03-02T00:44:11;55.50;;;28.60;;
25824;SDS011;13658;44.534;18.694;2024-03-02T00:46:39;54.03;;;25.92;;
25824;SDS011;13658;44.534;18.694;2024-03-02T00:49:10;61.92;;;30.58;;
25824;SDS011;13658;44.534;18.694;2024-03-02T00:51:37;59.28;;;31.13;;
25824;SDS011;13658;44.534;18.694;2024-03-02T00:54:04;64.15;;;31.30;;
25824;SDS011;13658;44.534;18.694;2024-03-02T00:56:32;66.95;;;31.90;;
25824;SDS011;13658;44.534;18.694;2024-03-02T00:59:00;57.83;;;29.77;;
25824;SDS011;13658;44.534;18.694;2024-03-02T01:01:25;64.03;;;31.13;;
25824;SDS011;13658;44.534;18.694;2024-03-02T01:03:52;68.82;;;31.40;;
25824;SDS011;13658;44.534;18.694;2024-03-02T01:06:18;63.83;;;31.33;;
25824;SDS011;13658;44.534;18.694;2024-03-02T01:08:44;62.17;;;30.25;;
25824;SDS011;13658;44.534;18.694;2024-03-02T01:11:11;63.65;;;29.23;;
25824;SDS011;13658;44.534;18.694;2024-03-02T01:13:37;57.50;;;29.58;;
25824;SDS011;13658;44.534;18.694;2024-03-02T01:16:03;64.13;;;31.58;;
25824;SDS011;13658;44.534;18.694;2024-03-02T01:18:29;60.00;;;29.48;;
25824;SDS011;13658;44.534;18.694;2024-03-02T01:20:56;59.33;;;29.52;;
25824;SDS011;13658;44.534;18.694;2024-03-02T01:23:22;54.88;;;28.63;;
25824;SDS011;13658;44.534;18.694;2024-03-02T01:25:49;54.72;;;26.70;;
25824;SDS011;13658;44.534;18.694;2024-03-02T01:28:16;54.47;;;26.95;;
25824;SDS011;13658;44.534;18.694;2024-03-02T01:30:44;56.13;;;29.83;;
25824;SDS011;13658;44.534;18.694;2024-03-02T01:33:10;52.90;;;26.15;;
25824;SDS011;13658;44.534;18.694;2024-03-02T01:35:36;54.45;;;26.80;;
25824;SDS011;13658;44.534;18.694;2024-03-02T01:38:02;54.67;;;27.00;;
25824;SDS011;13658;44.534;18.694;2024-03-02T01:40:31;52.67;;;25.52;;
25824;SDS011;13658;44.534;18.694;2024-03-02T01:42:59;47.10;;;23.35;;
25824;SDS011;13658;44.534;18.694;2024-03-02T01:45:24;47.95;;;23.00;;
25824;SDS011;13658;44.534;18.694;2024-03-02T01:47:50;41.80;;;22.52;;
25824;SDS011;13658;44.534;18.694;2024-03-02T01:50:24;47.45;;;22.02;;
25824;SDS011;13658;44.534;18.694;2024-03-02T01:52:57;42.28;;;21.98;;
25824;SDS011;13658;44.534;18.694;2024-03-02T01:55:24;48.72;;;22.27;;
25824;SDS011;13658;44.534;18.694;2024-03-02T01:57:50;52.92;;;26.88;;
25824;SDS011;13658;44.534;18.694;2024-03-02T02:00:20;48.13;;;23.88;;
25824;SDS011;13658;44.534;18.694;2024-03-02T02:02:50;55.55;;;28.80;;
25824;SDS011;13658;44.534;18.694;2024-03-02T02:05:16;58.22;;;30.20;;
25824;SDS011;13658;44.534;18.694;2024-03-02T02:07:42;60.33;;;29.90;;
25824;SDS011;13658;44.534;18.694;2024-03-02T02:10:09;55.75;;;29.77;;
25824;SDS011;13658;44.534;18.694;2024-03-02T02:12:36;52.63;;;26.17;;
25824;SDS011;13658;44.534;18.694;2024-03-02T02:15:02;55.28;;;27.27;;
25824;SDS011;13658;44.534;18.694;2024-03-02T02:17:47;53.10;;;26.75;;
25824;SDS011;13658;44.534;18.694;2024-03-02T02:20:13;49.25;;;26.52;;
25824;SDS011;13658;44.534;18.694;2024-03-02T02:22:39;49.55;;;26.40;;
25824;SDS011;13658;44.534;18.694;2024-03-02T02:25:05;49.25;;;24.60;;
25824;SDS011;13658;44.534;18.694;2024-03-02T02:27:31;50.03;;;25.42;;
25824;SDS011;13658;44.534;18.694;2024-03-02T02:29:57;53.00;;;25.77;;
25824;SDS011;13658;44.534;18.694;2024-03-02T02:32:23;52.47;;;27.75;;
25824;SDS011;13658;44.534;18.694;2024-03-02T02:34:52;57.20;;;28.65;;
25824;SDS011;13658;44.534;18.694;2024-03-02T02:37:18;51.72;;;25.83;;
25824;SDS011;13658;44.534;18.694;2024-03-02T02:39:44;51.70;;;26.13;;
25824;SDS011;13658;44.534;18.694;2024-03-02T02:42:11;47.30;;;24.75;;
25824;SDS011;13658;44.534;18.694;2024-03-02T02:44:37;47.72;;;24.05;;
25824;SDS011;13658;44.534;18.694;2024-03-02T02:47:03;48.85;;;23.55;;
25824;SDS011;13658;44.534;18.694;2024-03-02T02:49:30;45.35;;;24.90;;
25824;SDS011;13658;44.534;18.694;2024-03-02T02:51:56;50.53;;;25.08;;
25824;SDS011;13658;44.534;18.694;2024-03-02T02:54:22;49.65;;;23.50;;
25824;SDS011;13658;44.534;18.694;2024-03-02T02:56:48;42.08;;;22.58;;
25824;SDS011;13658;44.534;18.694;2024-03-02T02:59:14;46.92;;;23.77;;
25824;SDS011;13658;44.534;18.694;2024-03-02T03:01:40;45.65;;;23.85;;
25824;SDS011;13658;44.534;18.694;2024-03-02T03:04:06;50.95;;;23.92;;
25824;SDS011;13658;44.534;18.694;2024-03-02T03:06:32;46.95;;;25.63;;
25824;SDS011;13658;44.534;18.694;2024-03-02T03:08:57;53.95;;;25.77;;
25824;SDS011;13658;44.534;18.694;2024-03-02T03:11:23;51.05;;;24.85;;
25824;SDS011;13658;44.534;18.694;2024-03-02T03:13:51;46.78;;;23.45;;
25824;SDS011;13658;44.534;18.694;2024-03-02T03:16:19;48.08;;;25.85;;
25824;SDS011;13658;44.534;18.694;2024-03-02T03:18:45;45.20;;;23.63;;
25824;SDS011;13658;44.534;18.694;2024-03-02T03:21:11;47.65;;;25.10;;
25824;SDS011;13658;44.534;18.694;2024-03-02T03:23:37;46.97;;;24.88;;
25824;SDS011;13658;44.534;18.694;2024-03-02T03:26:03;48.58;;;25.02;;
25824;SDS011;13658;44.534;18.694;2024-03-02T03:28:29;50.35;;;25.70;;
25824;SDS011;13658;44.534;18.694;2024-03-02T03:30:55;46.13;;;23.80;;
25824;SDS011;13658;44.534;18.694;2024-03-02T03:33:21;43.10;;;23.92;;
25824;SDS011;13658;44.534;18.694;2024-03-02T03:35:47;39.30;;;21.98;;
25824;SDS011;13658;44.534;18.694;2024-03-02T03:38:13;38.75;;;20.52;;
25824;SDS011;13658;44.534;18.694;2024-03-02T03:40:39;41.35;;;21.58;;
25824;SDS011;13658;44.534;18.694;2024-03-02T03:43:05;39.00;;;22.30;;
25824;SDS011;13658;44.534;18.694;2024-03-02T03:45:31;40.85;;;21.63;;
25824;SDS011;13658;44.534;18.694;2024-03-02T03:47:57;39.17;;;20.58;;
25824;SDS011;13658;44.534;18.694;2024-03-02T03:50:22;41.72;;;20.83;;
25824;SDS011;13658;44.534;18.694;2024-03-02T03:52:48;37.05;;;19.65;;
25824;SDS011;13658;44.534;18.694;2024-03-02T03:55:14;38.80;;;20.25;;
25824;SDS011;13658;44.534;18.694;2024-03-02T03:57:40;37.05;;;20.33;;
25824;SDS011;13658;44.534;18.694;2024-03-02T04:00:06;37.45;;;19.48;;
25824;SDS011;13658;44.534;18.694;2024-03-02T04:02:38;41.20;;;20.27;;
25824;SDS011;13658;44.534;18.694;2024-03-02T04:05:04;36.30;;;18.45;;
25824;SDS011;13658;44.534;18.694;2024-03-02T04:07:34;39.45;;;19.65;;
25824;SDS011;13658;44.534;18.694;2024-03-02T04:10:09;39.05;;;19.55;;
25824;SDS011;13658;44.534;18.694;2024-03-02T04:12:38;42.47;;;20.42;;
25824;SDS011;13658;44.534;18.694;2024-03-02T04:15:04;36.75;;;19.05;;
25824;SDS011;13658;44.534;18.694;2024-03-02T04:17:32;38.13;;;19.60;;
25824;SDS011;13658;44.534;18.694;2024-03-02T04:19:59;47.72;;;21.65;;
25824;SDS011;13658;44.534;18.694;2024-03-02T04:22:25;39.88;;;20.88;;
25824;SDS011;13658;44.534;18.694;2024-03-02T04:24:52;43.80;;;21.60;;
25824;SDS011;13658;44.534;18.694;2024-03-02T04:27:18;39.58;;;20.08;;
25824;SDS011;13658;44.534;18.694;2024-03-02T04:29:44;41.47;;;21.30;;
25824;SDS011;13658;44.534;18.694;2024-03-02T04:32:10;39.72;;;19.98;;
25824;SDS011;13658;44.534;18.694;2024-03-02T04:34:36;38.00;;;19.80;;
25824;SDS011;13658;44.534;18.694;2024-03-02T04:37:02;42.45;;;20.10;;
25824;SDS011;13658;44.534;18.694;2024-03-02T04:39:28;36.97;;;19.98;;
25824;SDS011;13658;44.534;18.694;2024-03-02T04:41:53;35.53;;;19.40;;
25824;SDS011;13658;44.534;18.694;2024-03-02T04:44:19;35.05;;;18.67;;
25824;SDS011;13658;44.534;18.694;2024-03-02T04:46:45;36.55;;;18.48;;
25824;SDS011;13658;44.534;18.694;2024-03-02T04:49:11;31.80;;;17.65;;
25824;SDS011;13658;44.534;18.694;2024-03-02T04:51:38;33.75;;;18.40;;
25824;SDS011;13658;44.534;18.694;2024-03-02T04:54:04;31.63;;;18.58;;
25824;SDS011;13658;44.534;18.694;2024-03-02T04:56:30;35.35;;;18.60;;
25824;SDS011;13658;44.534;18.694;2024-03-02T04:58:56;38.38;;;19.15;;
25824;SDS011;13658;44.534;18.694;2024-03-02T05:01:22;38.33;;;19.92;;
25824;SDS011;13658;44.534;18.694;2024-03-02T05:03:48;36.30;;;19.60;;
25824;SDS011;13658;44.534;18.694;2024-03-02T05:06:14;40.80;;;20.08;;
25824;SDS011;13658;44.534;18.694;2024-03-02T05:08:40;37.88;;;19.80;;
25824;SDS011;13658;44.534;18.694;2024-03-02T05:11:06;40.65;;;19.80;;
25824;SDS011;13658;44.534;18.694;2024-03-02T05:13:50;36.22;;;17.48;;
25824;SDS011;13658;44.534;18.694;2024-03-02T05:16:16;30.23;;;16.20;;
25824;SDS011;13658;44.534;18.694;2024-03-02T05:18:42;29.45;;;16.95;;
25824;SDS011;13658;44.534;18.694;2024-03-02T05:21:08;35.38;;;19.25;;
25824;SDS011;13658;44.534;18.694;2024-03-02T05:23:33;40.65;;;21.90;;
25824;SDS011;13658;44.534;18.694;2024-03-02T05:25:59;44.15;;;22.48;;
25824;SDS011;13658;44.534;18.694;2024-03-02T05:28:25;45.55;;;22.65;;
25824;SDS011;13658;44.534;18.694;2024-03-02T05:30:51;44.15;;;22.58;;
25824;SDS011;13658;44.534;18.694;2024-03-02T05:33:17;41.33;;;22.90;;
25824;SDS011;13658;44.534;18.694;2024-03-02T05:35:43;47.63;;;22.80;;
25824;SDS011;13658;44.534;18.694;2024-03-02T05:38:09;52.70;;;27.40;;
25824;SDS011;13658;44.534;18.694;2024-03-02T05:40:35;50.13;;;24.08;;
25824;SDS011;13658;44.534;18.694;2024-03-02T05:43:01;47.95;;;25.83;;
25824;SDS011;13658;44.534;18.694;2024-03-02T05:45:27;50.13;;;26.15;;
25824;SDS011;13658;44.534;18.694;2024-03-02T05:47:53;57.20;;;28.05;;
25824;SDS011;13658;44.534;18.694;2024-03-02T05:50:19;53.47;;;27.10;;
25824;SDS011;13658;44.534;18.694;2024-03-02T05:52:45;58.55;;;29.80;;
25824;SDS011;13658;44.534;18.694;2024-03-02T05:55:11;58.50;;;30.65;;
25824;SDS011;13658;44.534;18.694;2024-03-02T05:57:37;56.33;;;29.08;;
25824;SDS011;13658;44.534;18.694;2024-03-02T06:00:08;50.35;;;23.80;;
25824;SDS011;13658;44.534;18.694;2024-03-02T06:02:39;48.60;;;23.40;;
25824;SDS011;13658;44.534;18.694;2024-03-02T06:05:06;40.60;;;23.15;;
25824;SDS011;13658;44.534;18.694;2024-03-02T06:07:35;37.53;;;21.42;;
25824;SDS011;13658;44.534;18.694;2024-03-02T06:10:00;48.53;;;21.88;;
25824;SDS011;13658;44.534;18.694;2024-03-02T06:12:26;43.78;;;23.20;;
25824;SDS011;13658;44.534;18.694;2024-03-02T06:14:52;47.40;;;23.60;;
25824;SDS011;13658;44.534;18.694;2024-03-02T06:17:18;47.00;;;23.00;;
25824;SDS011;13658;44.534;18.694;2024-03-02T06:19:44;45.80;;;24.77;;
25824;SDS011;13658;44.534;18.694;2024-03-02T06:22:10;44.08;;;23.48;;
25824;SDS011;13658;44.534;18.694;2024-03-02T06:24:36;43.33;;;20.88;;
25824;SDS011;13658;44.534;18.694;2024-03-02T06:27:05;36.40;;;18.35;;
25824;SDS011;13658;44.534;18.694;2024-03-02T06:29:34;33.30;;;17.45;;
25824;SDS011;13658;44.534;18.694;2024-03-02T06:32:00;35.55;;;17.00;;
25824;SDS011;13658;44.534;18.694;2024-03-02T06:34:26;26.98;;;16.35;;
25824;SDS011;13658;44.534;18.694;2024-03-02T06:36:51;29.30;;;16.83;;
25824;SDS011;13658;44.534;18.694;2024-03-02T06:39:17;35.97;;;18.67;;
25824;SDS011;13658;44.534;18.694;2024-03-02T06:41:43;31.92;;;17.60;;
25824;SDS011;13658;44.534;18.694;2024-03-02T06:44:09;35.42;;;20.15;;
25824;SDS011;13658;44.534;18.694;2024-03-02T06:46:35;37.28;;;21.98;;
25824;SDS011;13658;44.534;18.694;2024-03-02T06:49:01;40.08;;;23.77;;
25824;SDS011;13658;44.534;18.694;2024-03-02T06:51:28;48.40;;;26.77;;
25824;SDS011;13658;44.534;18.694;2024-03-02T06:53:54;50.30;;;26.88;;
25824;SDS011;13658;44.534;18.694;2024-03-02T06:56:20;46.95;;;26.75;;
25824;SDS011;13658;44.534;18.694;2024-03-02T06:58:46;49.72;;;26.70;;
25824;SDS011;13658;44.534;18.694;2024-03-02T07:01:12;50.28;;;26.27;;
25824;SDS011;13658;44.534;18.694;2024-03-02T07:03:38;49.17;;;26.55;;
25824;SDS011;13658;44.534;18.694;2024-03-02T07:06:07;48.30;;;25.42;;
25824;SDS011;13658;44.534;18.694;2024-03-02T07:08:33;46.67;;;24.95;;
25824;SDS011;13658;44.534;18.694;2024-03-02T07:10:59;50.30;;;26.08;;
25824;SDS011;13658;44.534;18.694;2024-03-02T07:13:25;44.08;;;24.77;;
25824;SDS011;13658;44.534;18.694;2024-03-02T07:15:52;44.88;;;26.08;;
25824;SDS011;13658;44.534;18.694;2024-03-02T07:18:36;44.83;;;25.55;;
25824;SDS011;13658;44.534;18.694;2024-03-02T07:21:10;46.00;;;25.35;;
25824;SDS011;13658;44.534;18.694;2024-03-02T07:23:36;45.40;;;26.40;;
25824;SDS011;13658;44.534;18.694;2024-03-02T07:26:02;44.50;;;27.98;;
25824;SDS011;13658;44.534;18.694;2024-03-02T07:28:28;46.10;;;27.85;;
25824;SDS011;13658;44.534;18.694;2024-03-02T07:31:04;50.20;;;30.90;;
25824;SDS011;13658;44.534;18.694;2024-03-02T07:33:30;53.05;;;29.60;;
25824;SDS011;13658;44.534;18.694;2024-03-02T07:35:57;43.95;;;29.40;;
25824;SDS011;13658;44.534;18.694;2024-03-02T07:38:25;59.20;;;36.42;;
25824;SDS011;13658;44.534;18.694;2024-03-02T07:40:50;71.35;;;40.00;;
25824;SDS011;13658;44.534;18.694;2024-03-02T07:43:17;44.50;;;28.63;;
25824;SDS011;13658;44.534;18.694;2024-03-02T07:45:44;46.72;;;26.25;;
25824;SDS011;13658;44.534;18.694;2024-03-02T07:48:10;47.25;;;29.92;;
25824;SDS011;13658;44.534;18.694;2024-03-02T07:50:36;43.95;;;26.80;;
25824;SDS011;13658;44.534;18.694;2024-03-02T07:53:04;38.38;;;23.95;;
25824;SDS011;13658;44.534;18.694;2024-03-02T07:55:31;38.28;;;22.70;;
25824;SDS011;13658;44.534;18.694;2024-03-02T07:57:57;33.05;;;19.85;;
25824;SDS011;13658;44.534;18.694;2024-03-02T08:00:23;30.52;;;17.80;;
25824;SDS011;13658;44.534;18.694;2024-03-02T08:02:51;31.40;;;18.60;;
25824;SDS011;13658;44.534;18.694;2024-03-02T08:05:17;30.65;;;18.08;;
25824;SDS011;13658;44.534;18.694;2024-03-02T08:07:44;29.90;;;17.83;;
25824;SDS011;13658;44.534;18.694;2024-03-02T08:10:11;29.60;;;18.17;;
25824;SDS011;13658;44.534;18.694;2024-03-02T08:12:37;32.35;;;18.52;;
25824;SDS011;13658;44.534;18.694;2024-03-02T08:15:03;27.73;;;18.60;;
25824;SDS011;13658;44.534;18.694;2024-03-02T08:17:30;30.23;;;20.70;;
25824;SDS011;13658;44.534;18.694;2024-03-02T08:19:56;29.27;;;19.83;;
25824;SDS011;13658;44.534;18.694;2024-03-02T08:22:23;33.30;;;20.30;;
25824;SDS011;13658;44.534;18.694;2024-03-02T08:24:50;34.78;;;19.98;;
25824;SDS011;13658;44.534;18.694;2024-03-02T08:27:17;35.17;;;21.80;;
25824;SDS011;13658;44.534;18.694;2024-03-02T08:29:43;37.92;;;24.20;;
25824;SDS011;13658;44.534;18.694;2024-03-02T08:32:09;35.85;;;22.63;;
25824;SDS011;13658;44.534;18.694;2024-03-02T08:34:35;36.28;;;23.98;;
25824;SDS011;13658;44.534;18.694;2024-03-02T08:37:01;47.53;;;30.17;;
25824;SDS011;13658;44.534;18.694;2024-03-02T08:39:27;40.63;;;26.80;;
25824;SDS011;13658;44.534;18.694;2024-03-02T08:41:53;38.75;;;25.45;;
25824;SDS011;13658;44.534;18.694;2024-03-02T08:44:20;35.20;;;22.92;;
25824;SDS011;13658;44.534;18.694;2024-03-02T08:46:46;37.33;;;22.45;;
25824;SDS011;13658;44.534;18.694;2024-03-02T08:49:12;35.17;;;19.92;;
25824;SDS011;13658;44.534;18.694;2024-03-02T08:51:38;33.28;;;22.85;;
25824;SDS011;13658;44.534;18.694;2024-03-02T08:54:04;33.90;;;21.95;;
25824;SDS011;13658;44.534;18.694;2024-03-02T08:56:30;32.70;;;23.27;;
25824;SDS011;13658;44.534;18.694;2024-03-02T08:58:57;31.85;;;22.45;;
25824;SDS011;13658;44.534;18.694;2024-03-02T09:01:23;30.95;;;21.38;;
25824;SDS011;13658;44.534;18.694;2024-03-02T09:03:49;29.63;;;21.23;;
25824;SDS011;13658;44.534;18.694;2024-03-02T09:06:15;26.38;;;20.40;;
25824;SDS011;13658;44.534;18.694;2024-03-02T09:08:45;23.25;;;18.38;;
25824;SDS011;13658;44.534;18.694;2024-03-02T09:11:11;21.08;;;17.73;;
25824;SDS011;13658;44.534;18.694;2024-03-02T09:13:37;24.05;;;15.30;;
25824;SDS011;13658;44.534;18.694;2024-03-02T09:16:04;37.63;;;29.30;;
25824;SDS011;13658;44.534;18.694;2024-03-02T09:18:30;26.48;;;19.20;;
25824;SDS011;13658;44.534;18.694;2024-03-02T09:20:56;21.52;;;16.42;;
25824;SDS011;13658;44.534;18.694;2024-03-02T09:23:22;21.20;;;15.70;;
25824;SDS011;13658;44.534;18.694;2024-03-02T09:25:48;30.80;;;23.92;;
25824;SDS011;13658;44.534;18.694;2024-03-02T09:28:17;23.13;;;16.05;;
25824;SDS011;13658;44.534;18.694;2024-03-02T09:30:43;23.75;;;17.88;;
25824;SDS011;13658;44.534;18.694;2024-03-02T09:33:09;25.27;;;18.55;;
25824;SDS011;13658;44.534;18.694;2024-03-02T09:35:35;17.40;;;14.82;;
25824;SDS011;13658;44.534;18.694;2024-03-02T09:38:01;22.85;;;16.52;;
25824;SDS011;13658;44.534;18.694;2024-03-02T09:40:28;18.13;;;15.38;;
25824;SDS011;13658;44.534;18.694;2024-03-02T09:42:54;20.90;;;15.43;;
25824;SDS011;13658;44.534;18.694;2024-03-02T09:45:22;13.85;;;10.55;;
25824;SDS011;13658;44.534;18.694;2024-03-02T09:47:49;18.15;;;11.85;;
25824;SDS011;13658;44.534;18.694;2024-03-02T09:50:16;11.80;;;9.73;;
25824;SDS011;13658;44.534;18.694;2024-03-02T09:52:42;12.95;;;8.20;;
25824;SDS011;13658;44.534;18.694;2024-03-02T09:55:09;16.50;;;8.15;;
25824;SDS011;13658;44.534;18.694;2024-03-02T09:57:36;11.15;;;5.40;;
25824;SDS011;13658;44.534;18.694;2024-03-02T10:00:02;11.68;;;6.65;;
25824;SDS011;13658;44.534;18.694;2024-03-02T10:02:30;7.65;;;4.53;;
25824;SDS011;13658;44.534;18.694;2024-03-02T10:04:56;8.32;;;4.90;;
25824;SDS011;13658;44.534;18.694;2024-03-02T10:07:22;9.63;;;6.20;;
25824;SDS011;13658;44.534;18.694;2024-03-02T10:09:48;9.15;;;5.18;;
25824;SDS011;13658;44.534;18.694;2024-03-02T10:12:15;14.65;;;9.07;;
25824;SDS011;13658;44.534;18.694;2024-03-02T10:14:42;14.63;;;9.98;;
25824;SDS011;13658;44.534;18.694;2024-03-02T10:17:08;10.15;;;5.65;;
25824;SDS011;13658;44.534;18.694;2024-03-02T10:19:36;8.98;;;5.03;;
25824;SDS011;13658;44.534;18.694;2024-03-02T10:22:08;7.97;;;5.32;;
25824;SDS011;13658;44.534;18.694;2024-03-02T10:24:35;6.07;;;4.90;;
25824;SDS011;13658;44.534;18.694;2024-03-02T10:27:27;11.63;;;6.32;;
25824;SDS011;13658;44.534;18.694;2024-03-02T10:29:55;8.07;;;4.80;;
25824;SDS011;13658;44.534;18.694;2024-03-02T10:32:22;7.13;;;4.13;;
25824;SDS011;13658;44.534;18.694;2024-03-02T10:34:48;23.50;;;15.30;;
25824;SDS011;13658;44.534;18.694;2024-03-02T10:37:16;10.32;;;4.18;;
25824;SDS011;13658;44.534;18.694;2024-03-02T10:39:45;10.48;;;6.35;;
25824;SDS011;13658;44.534;18.694;2024-03-02T10:42:12;13.45;;;7.22;;
25824;SDS011;13658;44.534;18.694;2024-03-02T10:44:40;10.10;;;6.32;;
25824;SDS011;13658;44.534;18.694;2024-03-02T10:47:08;9.88;;;7.30;;
25824;SDS011;13658;44.534;18.694;2024-03-02T10:49:36;9.00;;;5.20;;
25824;SDS011;13658;44.534;18.694;2024-03-02T10:52:06;15.75;;;12.45;;
25824;SDS011;13658;44.534;18.694;2024-03-02T10:54:34;5.55;;;3.72;;
25824;SDS011;13658;44.534;18.694;2024-03-02T10:57:05;7.25;;;4.45;;
25824;SDS011;13658;44.534;18.694;2024-03-02T10:59:35;6.65;;;4.35;;
25824;SDS011;13658;44.534;18.694;2024-03-02T11:02:04;9.90;;;5.03;;
25824;SDS011;13658;44.534;18.694;2024-03-02T11:04:32;9.50;;;4.47;;
25824;SDS011;13658;44.534;18.694;2024-03-02T11:07:06;7.32;;;4.32;;
25824;SDS011;13658;44.534;18.694;2024-03-02T11:09:34;10.48;;;4.82;;
25824;SDS011;13658;44.534;18.694;2024-03-02T11:12:19;8.10;;;3.50;;
25824;SDS011;13658;44.534;18.694;2024-03-02T11:14:48;6.43;;;3.83;;
25824;SDS011;13658;44.534;18.694;2024-03-02T11:17:17;9.48;;;4.60;;
25824;SDS011;13658;44.534;18.694;2024-03-02T11:19:43;14.60;;;6.25;;
25824;SDS011;13658;44.534;18.694;2024-03-02T11:22:10;9.13;;;3.60;;
25824;SDS011;13658;44.534;18.694;2024-03-02T11:24:38;5.43;;;2.80;;
25824;SDS011;13658;44.534;18.694;2024-03-02T11:27:04;8.82;;;4.60;;
25824;SDS011;13658;44.534;18.694;2024-03-02T11:32:02;7.90;;;3.30;;
25824;SDS011;13658;44.534;18.694;2024-03-02T11:34:32;8.20;;;3.60;;
25824;SDS011;13658;44.534;18.694;2024-03-02T11:37:03;14.05;;;5.00;;
25824;SDS011;13658;44.534;18.694;2024-03-02T11:39:30;15.70;;;6.15;;
25824;SDS011;13658;44.534;18.694;2024-03-02T11:41:56;7.68;;;4.18;;
25824;SDS011;13658;44.534;18.694;2024-03-02T11:44:32;12.90;;;4.00;;
25824;SDS011;13658;44.534;18.694;2024-03-02T11:46:59;12.68;;;6.43;;
25824;SDS011;13658;44.534;18.694;2024-03-02T11:49:39;9.75;;;4.80;;
25824;SDS011;13658;44.534;18.694;2024-03-02T11:54:38;12.45;;;5.40;;
25824;SDS011;13658;44.534;18.694;2024-03-02T11:57:05;5.03;;;2.65;;
25824;SDS011;13658;44.534;18.694;2024-03-02T11:59:32;13.25;;;3.35;;
25824;SDS011;13658;44.534;18.694;2024-03-02T12:01:58;8.00;;;3.78;;
25824;SDS011;13658;44.534;18.694;2024-03-02T12:04:25;10.55;;;4.18;;
25824;SDS011;13658;44.534;18.694;2024-03-02T12:06:55;8.45;;;4.28;;
25824;SDS011;13658;44.534;18.694;2024-03-02T12:09:27;8.55;;;4.00;;
25824;SDS011;13658;44.534;18.694;2024-03-02T12:12:06;9.43;;;3.60;;
25824;SDS011;13658;44.534;18.694;2024-03-02T12:14:34;8.27;;;3.60;;
25824;SDS011;13658;44.534;18.694;2024-03-02T12:17:01;8.85;;;3.42;;
25824;SDS011;13658;44.534;18.694;2024-03-02T12:19:29;18.15;;;4.40;;
25824;SDS011;13658;44.534;18.694;2024-03-02T12:21:56;11.18;;;4.75;;
25824;SDS011;13658;44.534;18.694;2024-03-02T12:24:23;9.23;;;4.32;;
25824;SDS011;13658;44.534;18.694;2024-03-02T12:26:53;6.38;;;3.20;;
25824;SDS011;13658;44.534;18.694;2024-03-02T12:29:19;7.70;;;3.30;;
25824;SDS011;13658;44.534;18.694;2024-03-02T12:31:49;14.05;;;4.20;;
25824;SDS011;13658;44.534;18.694;2024-03-02T12:34:17;7.38;;;4.13;;
25824;SDS011;13658;44.534;18.694;2024-03-02T12:36:45;5.78;;;3.10;;
25824;SDS011;13658;44.534;18.694;2024-03-02T12:39:17;14.82;;;4.10;;
25824;SDS011;13658;44.534;18.694;2024-03-02T12:41:46;10.60;;;3.58;;
25824;SDS011;13658;44.534;18.694;2024-03-02T12:44:12;10.48;;;4.20;;
25824;SDS011;13658;44.534;18.694;2024-03-02T12:46:38;10.60;;;4.15;;
25824;SDS011;13658;44.534;18.694;2024-03-02T12:49:06;7.30;;;2.90;;
25824;SDS011;13658;44.534;18.694;2024-03-02T12:51:41;6.65;;;2.70;;
25824;SDS011;13658;44.534;18.694;2024-03-02T12:54:08;6.93;;;3.55;;
25824;SDS011;13658;44.534;18.694;2024-03-02T12:56:36;9.20;;;3.67;;
25824;SDS011;13658;44.534;18.694;2024-03-02T12:59:03;8.13;;;4.20;;
25824;SDS011;13658;44.534;18.694;2024-03-02T13:01:29;9.35;;;4.80;;
25824;SDS011;13658;44.534;18.694;2024-03-02T13:03:57;6.63;;;3.50;;
25824;SDS011;13658;44.534;18.694;2024-03-02T13:06:24;10.40;;;3.45;;
25824;SDS011;13658;44.534;18.694;2024-03-02T13:08:53;8.55;;;2.80;;
25824;SDS011;13658;44.534;18.694;2024-03-02T13:11:21;7.82;;;3.20;;
25824;SDS011;13658;44.534;18.694;2024-03-02T13:13:50;9.27;;;3.05;;
25824;SDS011;13658;44.534;18.694;2024-03-02T13:16:17;6.18;;;3.13;;
25824;SDS011;13658;44.534;18.694;2024-03-02T13:18:45;9.63;;;3.25;;
25824;SDS011;13658;44.534;18.694;2024-03-02T13:21:11;8.02;;;3.38;;
25824;SDS011;13658;44.534;18.694;2024-03-02T13:23:37;7.88;;;3.65;;
25824;SDS011;13658;44.534;18.694;2024-03-02T13:26:03;6.90;;;3.17;;
25824;SDS011;13658;44.534;18.694;2024-03-02T13:28:29;8.55;;;3.60;;
25824;SDS011;13658;44.534;18.694;2024-03-02T13:30:55;6.60;;;2.60;;
25824;SDS011;13658;44.534;18.694;2024-03-02T13:33:21;9.30;;;3.05;;
25824;SDS011;13658;44.534;18.694;2024-03-02T13:35:49;6.47;;;3.58;;
25824;SDS011;13658;44.534;18.694;2024-03-02T13:38:19;5.43;;;2.70;;
25824;SDS011;13658;44.534;18.694;2024-03-02T13:40:45;7.68;;;4.20;;
25824;SDS011;13658;44.534;18.694;2024-03-02T13:43:13;14.52;;;5.18;;
25824;SDS011;13658;44.534;18.694;2024-03-02T13:45:39;8.43;;;4.15;;
25824;SDS011;13658;44.534;18.694;2024-03-02T13:48:05;6.45;;;3.42;;
25824;SDS011;13658;44.534;18.694;2024-03-02T13:50:31;5.32;;;3.00;;
25824;SDS011;13658;44.534;18.694;2024-03-02T13:52:57;6.40;;;3.28;;
25824;SDS011;13658;44.534;18.694;2024-03-02T13:55:24;6.20;;;3.08;;
25824;SDS011;13658;44.534;18.694;2024-03-02T13:57:50;4.38;;;2.70;;
25824;SDS011;13658;44.534;18.694;2024-03-02T14:00:16;9.02;;;5.65;;
25824;SDS011;13658;44.534;18.694;2024-03-02T14:02:43;5.72;;;3.22;;
25824;SDS011;13658;44.534;18.694;2024-03-02T14:05:10;7.47;;;3.70;;
25824;SDS011;13658;44.534;18.694;2024-03-02T14:07:46;6.63;;;3.38;;
25824;SDS011;13658;44.534;18.694;2024-03-02T14:10:11;6.25;;;3.38;;
25824;SDS011;13658;44.534;18.694;2024-03-02T14:12:37;6.13;;;3.20;;
25824;SDS011;13658;44.534;18.694;2024-03-02T14:15:03;6.93;;;3.10;;
25824;SDS011;13658;44.534;18.694;2024-03-02T14:17:30;9.70;;;5.25;;
25824;SDS011;13658;44.534;18.694;2024-03-02T14:19:57;10.00;;;4.47;;
25824;SDS011;13658;44.534;18.694;2024-03-02T14:22:24;8.93;;;3.90;;